sensor_id;sensor_type;location;lat;lon;timestamp;pressure;altitude;pressure_sealevel;temperature;humidity
72896;BME280;61036;53.224;6.554;2023-09-19T00:00:15;100374.44;;;20.22;100.00
72896;BME280;61036;53.224;6.554;2023-09-19T00:02:46;100371.97;;;20.42;100.00
72896;BME280;61036;53.224;6.554;2023-09-19T00:05:12;100377.34;;;20.21;100.00
72896;BME280;61036;53.224;6.554;2023-09-19T00:07:38;100380.47;;;20.32;100.00
72896;BME280;61036;53.224;6.554;2023-09-19T00:10:04;100384.06;;;20.18;100.00
72896;BME280;61036;53.224;6.554;2023-09-19T00:12:30;100382.13;;;20.78;100.00
72896;BME280;61036;53.224;6.554;2023-09-19T00:14:56;100384.44;;;20.30;100.00
72896;BME280;61036;53.224;6.554;2023-09-19T00:17:22;100391.41;;;20.03;100.00
72896;BME280;61036;53.224;6.554;2023-09-19T00:19:47;100384.72;;;20.05;100.00
72896;BME280;61036;53.224;6.554;2023-09-19T00:22:17;100403.56;;;19.71;100.00
72896;BME280;61036;53.224;6.554;2023-09-19T00:24:44;100403.44;;;20.61;100.00
72896;BME280;61036;53.224;6.554;2023-09-19T00:27:09;100400.22;;;20.28;100.00
72896;BME280;61036;53.224;6.554;2023-09-19T00:29:35;100408.44;;;20.28;100.00
72896;BME280;61036;53.224;6.554;2023-09-19T00:32:01;100412.56;;;20.83;100.00
72896;BME280;61036;53.224;6.554;2023-09-19T00:34:28;100405.59;;;20.36;100.00
72896;BME280;61036;53.224;6.554;2023-09-19T00:36:55;100405.16;;;19.65;100.00
72896;BME280;61036;53.224;6.554;2023-09-19T00:39:20;100412.25;;;19.74;100.00
72896;BME280;61036;53.224;6.554;2023-09-19T00:41:47;100418.06;;;20.68;100.00
72896;BME280;61036;53.224;6.554;2023-09-19T00:44:13;100420.72;;;20.47;100.00
72896;BME280;61036;53.224;6.554;2023-09-19T00:46:42;100421.88;;;19.85;100.00
72896;BME280;61036;53.224;6.554;2023-09-19T00:49:08;100430.75;;;19.87;100.00
72896;BME280;61036;53.224;6.554;2023-09-19T00:51:35;100430.09;;;19.62;100.00
72896;BME280;61036;53.224;6.554;2023-09-19T00:54:02;100437.03;;;20.10;100.00
72896;BME280;61036;53.224;6.554;2023-09-19T00:56:29;100436.50;;;19.77;100.00
72896;BME280;61036;53.224;6.554;2023-09-19T00:58:54;100447.88;;;20.04;100.00
72896;BME280;61036;53.224;6.554;2023-09-19T01:01:20;100450.63;;;19.66;100.00
72896;BME280;61036;53.224;6.554;2023-09-19T01:03:46;100443.53;;;19.49;100.00
72896;BME280;61036;53.224;6.554;2023-09-19T01:06:12;100446.75;;;19.52;100.00
72896;BME280;61036;53.224;6.554;2023-09-19T01:08:38;100452.84;;;19.62;100.00
72896;BME280;61036;53.224;6.554;2023-09-19T01:11:29;100458.47;;;20.51;100.00
72896;BME280;61036;53.224;6.554;2023-09-19T01:14:03;100468.47;;;20.29;100.00
72896;BME280;61036;53.224;6.554;2023-09-19T01:17:00;100467.25;;;20.17;100.00
72896;BME280;61036;53.224;6.554;2023-09-19T01:22:42;100466.69;;;20.07;100.00
72896;BME280;61036;53.224;6.554;2023-09-19T01:25:39;100460.56;;;19.82;100.00
72896;BME280;61036;53.224;6.554;2023-09-19T01:31:21;100465.00;;;19.83;100.00
72896;BME280;61036;53.224;6.554;2023-09-19T01:33:58;100462.50;;;19.73;100.00
72896;BME280;61036;53.224;6.554;2023-09-19T01:36:26;100471.50;;;19.82;100.00
72896;BME280;61036;53.224;6.554;2023-09-19T01:38:52;100473.63;;;19.95;100.00
72896;BME280;61036;53.224;6.554;2023-09-19T01:41:41;100473.38;;;19.81;100.00
72896;BME280;61036;53.224;6.554;2023-09-19T01:44:17;100475.59;;;20.53;100.00
72896;BME280;61036;53.224;6.554;2023-09-19T01:46:47;100475.53;;;20.09;100.00
72896;BME280;61036;53.224;6.554;2023-09-19T01:52:05;100488.03;;;19.88;100.00
72896;BME280;61036;53.224;6.554;2023-09-19T01:54:39;100477.44;;;19.85;100.00
72896;BME280;61036;53.224;6.554;2023-09-19T01:57:17;100482.25;;;20.21;100.00
72896;BME280;61036;53.224;6.554;2023-09-19T01:59:49;100476.78;;;20.36;100.00
72896;BME280;61036;53.224;6.554;2023-09-19T02:02:17;100488.53;;;19.92;100.00
72896;BME280;61036;53.224;6.554;2023-09-19T02:04:43;100482.91;;;19.71;100.00
72896;BME280;61036;53.224;6.554;2023-09-19T02:07:09;100483.09;;;19.38;100.00
72896;BME280;61036;53.224;6.554;2023-09-19T02:09:34;100475.09;;;19.59;100.00
72896;BME280;61036;53.224;6.554;2023-09-19T02:12:04;100473.53;;;19.65;100.00
72896;BME280;61036;53.224;6.554;2023-09-19T02:14:30;100477.38;;;19.94;100.00
72896;BME280;61036;53.224;6.554;2023-09-19T02:16:56;100486.94;;;19.98;100.00
72896;BME280;61036;53.224;6.554;2023-09-19T02:19:22;100471.16;;;19.08;100.00
72896;BME280;61036;53.224;6.554;2023-09-19T02:21:49;100471.44;;;19.44;100.00
72896;BME280;61036;53.224;6.554;2023-09-19T02:24:15;100484.59;;;19.72;100.00
72896;BME280;61036;53.224;6.554;2023-09-19T02:26:41;100483.03;;;19.46;100.00
72896;BME280;61036;53.224;6.554;2023-09-19T02:29:06;100483.94;;;19.61;100.00
72896;BME280;61036;53.224;6.554;2023-09-19T02:31:32;100487.78;;;19.52;100.00
72896;BME280;61036;53.224;6.554;2023-09-19T02:33:58;100499.31;;;19.39;100.00
72896;BME280;61036;53.224;6.554;2023-09-19T02:40:16;100476.69;;;18.91;100.00
72896;BME280;61036;53.224;6.554;2023-09-19T02:42:48;100481.03;;;19.40;100.00
72896;BME280;61036;53.224;6.554;2023-09-19T02:45:18;100488.06;;;19.11;100.00
72896;BME280;61036;53.224;6.554;2023-09-19T02:47:44;100487.50;;;19.16;100.00
72896;BME280;61036;53.224;6.554;2023-09-19T02:50:10;100491.41;;;18.90;100.00
72896;BME280;61036;53.224;6.554;2023-09-19T02:52:37;100487.13;;;18.88;100.00
72896;BME280;61036;53.224;6.554;2023-09-19T02:55:03;100480.94;;;19.02;100.00
72896;BME280;61036;53.224;6.554;2023-09-19T02:57:31;100482.44;;;18.65;100.00
72896;BME280;61036;53.224;6.554;2023-09-19T02:59:59;100489.03;;;18.71;100.00
72896;BME280;61036;53.224;6.554;2023-09-19T03:02:26;100492.09;;;18.92;100.00
72896;BME280;61036;53.224;6.554;2023-09-19T03:04:52;100492.13;;;19.15;100.00
72896;BME280;61036;53.224;6.554;2023-09-19T03:07:18;100495.06;;;18.75;100.00
72896;BME280;61036;53.224;6.554;2023-09-19T03:09:43;100493.09;;;18.91;100.00
72896;BME280;61036;53.224;6.554;2023-09-19T03:12:10;100491.44;;;18.82;100.00
72896;BME280;61036;53.224;6.554;2023-09-19T03:14:36;100499.56;;;18.99;100.00
72896;BME280;61036;53.224;6.554;2023-09-19T03:17:02;100487.34;;;18.78;100.00
72896;BME280;61036;53.224;6.554;2023-09-19T03:19:31;100491.97;;;19.09;100.00
72896;BME280;61036;53.224;6.554;2023-09-19T03:21:59;100489.97;;;19.03;100.00
72896;BME280;61036;53.224;6.554;2023-09-19T03:24:25;100498.50;;;19.08;100.00
72896;BME280;61036;53.224;6.554;2023-09-19T03:26:51;100504.22;;;19.21;100.00
72896;BME280;61036;53.224;6.554;2023-09-19T03:29:17;100511.50;;;18.98;100.00
72896;BME280;61036;53.224;6.554;2023-09-19T03:31:44;100512.31;;;19.06;100.00
72896;BME280;61036;53.224;6.554;2023-09-19T03:34:11;100519.53;;;19.30;100.00
72896;BME280;61036;53.224;6.554;2023-09-19T03:36:37;100516.34;;;18.87;100.00
72896;BME280;61036;53.224;6.554;2023-09-19T03:39:02;100511.16;;;19.01;100.00
72896;BME280;61036;53.224;6.554;2023-09-19T03:41:31;100508.47;;;18.92;100.00
72896;BME280;61036;53.224;6.554;2023-09-19T03:43:58;100521.34;;;18.76;100.00
72896;BME280;61036;53.224;6.554;2023-09-19T03:46:24;100511.09;;;18.78;100.00
72896;BME280;61036;53.224;6.554;2023-09-19T03:48:50;100511.34;;;18.99;100.00
72896;BME280;61036;53.224;6.554;2023-09-19T03:51:16;100510.78;;;19.04;100.00
72896;BME280;61036;53.224;6.554;2023-09-19T03:53:41;100499.00;;;19.03;100.00
72896;BME280;61036;53.224;6.554;2023-09-19T03:56:07;100513.13;;;19.15;100.00
72896;BME280;61036;53.224;6.554;2023-09-19T03:58:33;100511.34;;;18.99;100.00
72896;BME280;61036;53.224;6.554;2023-09-19T04:01:03;100511.44;;;18.75;100.00
72896;BME280;61036;53.224;6.554;2023-09-19T04:03:28;100522.13;;;18.20;100.00
72896;BME280;61036;53.224;6.554;2023-09-19T04:06:01;100510.72;;;18.72;100.00
72896;BME280;61036;53.224;6.554;2023-09-19T04:08:27;100510.41;;;18.76;100.00
72896;BME280;61036;53.224;6.554;2023-09-19T04:10:53;100506.09;;;18.01;100.00
72896;BME280;61036;53.224;6.554;2023-09-19T04:13:18;100506.03;;;18.42;100.00
72896;BME280;61036;53.224;6.554;2023-09-19T04:15:44;100515.44;;;18.47;100.00
72896;BME280;61036;53.224;6.554;2023-09-19T04:18:11;100509.56;;;18.67;100.00
72896;BME280;61036;53.224;6.554;2023-09-19T04:20:37;100517.81;;;18.98;100.00
72896;BME280;61036;53.224;6.554;2023-09-19T04:23:03;100522.22;;;18.51;100.00
72896;BME280;61036;53.224;6.554;2023-09-19T04:25:31;100519.44;;;19.15;100.00
72896;BME280;61036;53.224;6.554;2023-09-19T04:27:57;100520.13;;;19.17;100.00
72896;BME280;61036;53.224;6.554;2023-09-19T04:30:23;100523.22;;;19.14;100.00
72896;BME280;61036;53.224;6.554;2023-09-19T04:32:48;100534.13;;;19.23;100.00
72896;BME280;61036;53.224;6.554;2023-09-19T04:35:16;100538.03;;;19.51;100.00
72896;BME280;61036;53.224;6.554;2023-09-19T04:37:41;100513.09;;;19.23;100.00
72896;BME280;61036;53.224;6.554;2023-09-19T04:40:10;100520.78;;;18.80;100.00
72896;BME280;61036;53.224;6.554;2023-09-19T04:42:40;100536.72;;;18.44;100.00
72896;BME280;61036;53.224;6.554;2023-09-19T04:45:07;100548.84;;;19.45;100.00
72896;BME280;61036;53.224;6.554;2023-09-19T04:47:34;100555.84;;;19.47;100.00
72896;BME280;61036;53.224;6.554;2023-09-19T04:50:00;100543.41;;;19.13;100.00
72896;BME280;61036;53.224;6.554;2023-09-19T04:52:25;100528.50;;;18.77;100.00
72896;BME280;61036;53.224;6.554;2023-09-19T04:54:50;100536.91;;;19.06;100.00
72896;BME280;61036;53.224;6.554;2023-09-19T04:57:16;100536.53;;;18.78;100.00
72896;BME280;61036;53.224;6.554;2023-09-19T04:59:41;100549.69;;;18.75;100.00
72896;BME280;61036;53.224;6.554;2023-09-19T05:02:07;100547.81;;;18.75;100.00
72896;BME280;61036;53.224;6.554;2023-09-19T05:04:37;100548.63;;;19.23;100.00
72896;BME280;61036;53.224;6.554;2023-09-19T05:07:02;100551.81;;;19.35;100.00
72896;BME280;61036;53.224;6.554;2023-09-19T05:09:28;100544.03;;;19.15;100.00
72896;BME280;61036;53.224;6.554;2023-09-19T05:11:54;100543.34;;;18.82;100.00
72896;BME280;61036;53.224;6.554;2023-09-19T05:14:19;100545.50;;;18.95;100.00
72896;BME280;61036;53.224;6.554;2023-09-19T05:16:46;100535.78;;;19.55;100.00
72896;BME280;61036;53.224;6.554;2023-09-19T05:19:12;100544.72;;;19.17;100.00
72896;BME280;61036;53.224;6.554;2023-09-19T05:21:37;100547.09;;;18.89;100.00
72896;BME280;61036;53.224;6.554;2023-09-19T05:24:07;100536.88;;;19.46;100.00
72896;BME280;61036;53.224;6.554;2023-09-19T05:26:32;100550.25;;;19.40;100.00
72896;BME280;61036;53.224;6.554;2023-09-19T05:28:58;100549.09;;;18.95;100.00
72896;BME280;61036;53.224;6.554;2023-09-19T05:31:24;100549.91;;;19.44;100.00
72896;BME280;61036;53.224;6.554;2023-09-19T05:33:51;100556.44;;;19.66;100.00
72896;BME280;61036;53.224;6.554;2023-09-19T05:36:19;100566.63;;;19.80;100.00
72896;BME280;61036;53.224;6.554;2023-09-19T05:38:45;100558.38;;;18.70;100.00
72896;BME280;61036;53.224;6.554;2023-09-19T05:41:11;100555.31;;;19.21;100.00
72896;BME280;61036;53.224;6.554;2023-09-19T05:43:39;100564.34;;;19.52;100.00
72896;BME280;61036;53.224;6.554;2023-09-19T05:46:07;100563.81;;;20.11;100.00
72896;BME280;61036;53.224;6.554;2023-09-19T05:48:34;100563.88;;;19.17;100.00
72896;BME280;61036;53.224;6.554;2023-09-19T05:50:59;100566.00;;;19.93;100.00
72896;BME280;61036;53.224;6.554;2023-09-19T05:53:27;100561.09;;;19.26;100.00
72896;BME280;61036;53.224;6.554;2023-09-19T05:55:53;100554.81;;;18.78;100.00
72896;BME280;61036;53.224;6.554;2023-09-19T05:58:20;100548.00;;;19.13;100.00
72896;BME280;61036;53.224;6.554;2023-09-19T06:00:46;100539.59;;;19.23;100.00
72896;BME280;61036;53.224;6.554;2023-09-19T06:03:14;100550.59;;;18.98;100.00
72896;BME280;61036;53.224;6.554;2023-09-19T06:05:40;100561.81;;;19.19;100.00
72896;BME280;61036;53.224;6.554;2023-09-19T06:08:08;100574.19;;;18.99;100.00
72896;BME280;61036;53.224;6.554;2023-09-19T06:10:35;100581.19;;;20.18;100.00
72896;BME280;61036;53.224;6.554;2023-09-19T06:13:03;100582.53;;;19.45;100.00
72896;BME280;61036;53.224;6.554;2023-09-19T06:15:31;100581.81;;;19.51;100.00
72896;BME280;61036;53.224;6.554;2023-09-19T06:17:59;100591.94;;;19.42;100.00
72896;BME280;61036;53.224;6.554;2023-09-19T06:20:27;100589.16;;;19.51;100.00
72896;BME280;61036;53.224;6.554;2023-09-19T06:22:53;100589.53;;;19.48;100.00
72896;BME280;61036;53.224;6.554;2023-09-19T06:25:19;100596.66;;;19.65;100.00
72896;BME280;61036;53.224;6.554;2023-09-19T06:27:46;100596.44;;;19.98;100.00
72896;BME280;61036;53.224;6.554;2023-09-19T06:30:11;100602.59;;;20.38;100.00
72896;BME280;61036;53.224;6.554;2023-09-19T06:32:38;100597.81;;;19.62;100.00
72896;BME280;61036;53.224;6.554;2023-09-19T06:35:05;100597.97;;;20.15;100.00
72896;BME280;61036;53.224;6.554;2023-09-19T06:37:33;100595.97;;;20.09;100.00
72896;BME280;61036;53.224;6.554;2023-09-19T06:39:59;100586.03;;;20.54;100.00
72896;BME280;61036;53.224;6.554;2023-09-19T06:42:25;100595.81;;;20.48;100.00
72896;BME280;61036;53.224;6.554;2023-09-19T06:44:51;100598.19;;;20.14;100.00
72896;BME280;61036;53.224;6.554;2023-09-19T06:47:16;100595.13;;;20.08;100.00
72896;BME280;61036;53.224;6.554;2023-09-19T06:49:42;100586.09;;;19.46;100.00
72896;BME280;61036;53.224;6.554;2023-09-19T06:52:09;100580.53;;;19.31;100.00
72896;BME280;61036;53.224;6.554;2023-09-19T06:54:35;100580.88;;;19.36;100.00
72896;BME280;61036;53.224;6.554;2023-09-19T06:57:01;100589.53;;;19.48;100.00
72896;BME280;61036;53.224;6.554;2023-09-19T06:59:27;100591.59;;;20.00;100.00
72896;BME280;61036;53.224;6.554;2023-09-19T07:01:52;100594.19;;;20.62;100.00
72896;BME280;61036;53.224;6.554;2023-09-19T07:04:18;100583.91;;;20.41;100.00
72896;BME280;61036;53.224;6.554;2023-09-19T07:06:49;100592.88;;;19.66;100.00
72896;BME280;61036;53.224;6.554;2023-09-19T07:09:18;100601.91;;;19.98;100.00
72896;BME280;61036;53.224;6.554;2023-09-19T07:11:47;100596.13;;;19.93;100.00
72896;BME280;61036;53.224;6.554;2023-09-19T07:14:13;100584.31;;;19.61;100.00
72896;BME280;61036;53.224;6.554;2023-09-19T07:16:39;100593.84;;;19.96;100.00
72896;BME280;61036;53.224;6.554;2023-09-19T07:19:08;100605.97;;;20.40;100.00
72896;BME280;61036;53.224;6.554;2023-09-19T07:21:33;100607.09;;;20.30;100.00
72896;BME280;61036;53.224;6.554;2023-09-19T07:24:01;100615.66;;;20.73;100.00
72896;BME280;61036;53.224;6.554;2023-09-19T07:26:27;100608.13;;;19.52;100.00
72896;BME280;61036;53.224;6.554;2023-09-19T07:28:53;100618.13;;;20.98;100.00
72896;BME280;61036;53.224;6.554;2023-09-19T07:31:19;100612.91;;;19.90;100.00
72896;BME280;61036;53.224;6.554;2023-09-19T07:33:45;100609.03;;;19.76;100.00
72896;BME280;61036;53.224;6.554;2023-09-19T07:36:11;100609.28;;;20.58;100.00
72896;BME280;61036;53.224;6.554;2023-09-19T07:38:39;100606.75;;;20.48;100.00
72896;BME280;61036;53.224;6.554;2023-09-19T07:41:05;100598.47;;;21.09;100.00
72896;BME280;61036;53.224;6.554;2023-09-19T07:43:31;100601.44;;;20.55;100.00
72896;BME280;61036;53.224;6.554;2023-09-19T07:45:57;100604.56;;;19.83;100.00
72896;BME280;61036;53.224;6.554;2023-09-19T07:48:22;100613.88;;;20.43;100.00
72896;BME280;61036;53.224;6.554;2023-09-19T07:50:49;100610.25;;;20.65;100.00
72896;BME280;61036;53.224;6.554;2023-09-19T07:53:15;100605.41;;;20.29;100.00
72896;BME280;61036;53.224;6.554;2023-09-19T07:55:42;100603.44;;;20.61;100.00
72896;BME280;61036;53.224;6.554;2023-09-19T07:58:13;100604.34;;;20.16;100.00
72896;BME280;61036;53.224;6.554;2023-09-19T08:00:41;100612.72;;;21.34;100.00
72896;BME280;61036;53.224;6.554;2023-09-19T08:03:07;100613.28;;;21.30;100.00
72896;BME280;61036;53.224;6.554;2023-09-19T08:05:34;100607.78;;;21.30;100.00
72896;BME280;61036;53.224;6.554;2023-09-19T08:07:59;100613.13;;;21.46;100.00
72896;BME280;61036;53.224;6.554;2023-09-19T08:10:25;100606.56;;;21.32;100.00
72896;BME280;61036;53.224;6.554;2023-09-19T08:12:53;100617.94;;;22.17;100.00
72896;BME280;61036;53.224;6.554;2023-09-19T08:15:23;100625.75;;;21.62;100.00
72896;BME280;61036;53.224;6.554;2023-09-19T08:17:49;100618.03;;;21.36;100.00
72896;BME280;61036;53.224;6.554;2023-09-19T08:20:15;100621.34;;;22.68;100.00
72896;BME280;61036;53.224;6.554;2023-09-19T08:25:14;100605.00;;;26.27;100.00
72896;BME280;61036;53.224;6.554;2023-09-19T08:27:43;100621.66;;;25.24;100.00
72896;BME280;61036;53.224;6.554;2023-09-19T08:30:14;100626.72;;;23.04;100.00
72896;BME280;61036;53.224;6.554;2023-09-19T08:32:39;100620.88;;;24.83;100.00
72896;BME280;61036;53.224;6.554;2023-09-19T08:35:06;100626.44;;;25.55;100.00
72896;BME280;61036;53.224;6.554;2023-09-19T08:37:32;100622.97;;;24.28;100.00
72896;BME280;61036;53.224;6.554;2023-09-19T08:39:58;100622.84;;;22.71;100.00
72896;BME280;61036;53.224;6.554;2023-09-19T08:42:23;100619.03;;;21.64;100.00
72896;BME280;61036;53.224;6.554;2023-09-19T08:44:50;100608.09;;;22.50;100.00
72896;BME280;61036;53.224;6.554;2023-09-19T08:47:19;100615.72;;;23.04;100.00
72896;BME280;61036;53.224;6.554;2023-09-19T08:50:33;100610.75;;;23.28;100.00
72896;BME280;61036;53.224;6.554;2023-09-19T08:52:43;100609.66;;;23.22;100.00
72896;BME280;61036;53.224;6.554;2023-09-19T08:55:13;100603.50;;;23.62;100.00
72896;BME280;61036;53.224;6.554;2023-09-19T08:57:45;100609.41;;;22.82;100.00
72896;BME280;61036;53.224;6.554;2023-09-19T09:00:15;100614.38;;;22.66;100.00
72896;BME280;61036;53.224;6.554;2023-09-19T09:02:43;100625.16;;;21.81;100.00
72896;BME280;61036;53.224;6.554;2023-09-19T09:05:09;100630.13;;;20.97;100.00
72896;BME280;61036;53.224;6.554;2023-09-19T09:07:40;100626.81;;;22.90;100.00
72896;BME280;61036;53.224;6.554;2023-09-19T09:10:06;100621.16;;;22.70;100.00
72896;BME280;61036;53.224;6.554;2023-09-19T09:12:34;100625.22;;;22.09;100.00
72896;BME280;61036;53.224;6.554;2023-09-19T09:15:05;100625.16;;;21.81;100.00
72896;BME280;61036;53.224;6.554;2023-09-19T09:17:30;100624.38;;;22.09;100.00
72896;BME280;61036;53.224;6.554;2023-09-19T09:19:56;100622.22;;;22.04;100.00
72896;BME280;61036;53.224;6.554;2023-09-19T09:22:22;100622.94;;;22.13;100.00
72896;BME280;61036;53.224;6.554;2023-09-19T09:27:19;100616.50;;;22.70;100.00
72896;BME280;61036;53.224;6.554;2023-09-19T09:29:48;100618.59;;;22.68;100.00
72896;BME280;61036;53.224;6.554;2023-09-19T09:32:25;100619.72;;;22.24;100.00
72896;BME280;61036;53.224;6.554;2023-09-19T09:34:53;100619.78;;;21.73;100.00
72896;BME280;61036;53.224;6.554;2023-09-19T09:37:20;100613.56;;;21.50;100.00
72896;BME280;61036;53.224;6.554;2023-09-19T09:39:49;100623.38;;;21.74;100.00
72896;BME280;61036;53.224;6.554;2023-09-19T09:42:36;100609.84;;;22.86;100.00
72896;BME280;61036;53.224;6.554;2023-09-19T09:47:57;100607.44;;;22.76;100.00
72896;BME280;61036;53.224;6.554;2023-09-19T09:50:34;100609.66;;;23.22;100.00
72896;BME280;61036;53.224;6.554;2023-09-19T09:53:24;100600.66;;;23.35;100.00
72896;BME280;61036;53.224;6.554;2023-09-19T09:56:08;100610.84;;;22.50;100.00
72896;BME280;61036;53.224;6.554;2023-09-19T10:01:13;100607.94;;;22.58;100.00
72896;BME280;61036;53.224;6.554;2023-09-19T10:03:41;100606.56;;;23.80;100.00
72896;BME280;61036;53.224;6.554;2023-09-19T10:06:14;100606.56;;;23.87;100.00
72896;BME280;61036;53.224;6.554;2023-09-19T10:09:06;100603.50;;;24.76;100.00
72896;BME280;61036;53.224;6.554;2023-09-19T10:11:39;100590.88;;;23.26;100.00
72896;BME280;61036;53.224;6.554;2023-09-19T10:14:07;100595.97;;;22.94;100.00
72896;BME280;61036;53.224;6.554;2023-09-19T10:16:35;100591.41;;;23.08;100.00
72896;BME280;61036;53.224;6.554;2023-09-19T10:19:04;100588.19;;;23.46;100.00
72896;BME280;61036;53.224;6.554;2023-09-19T10:21:33;100596.28;;;23.61;100.00
72896;BME280;61036;53.224;6.554;2023-09-19T10:24:03;100590.81;;;22.85;100.00
72896;BME280;61036;53.224;6.554;2023-09-19T10:26:30;100593.91;;;22.75;100.00
72896;BME280;61036;53.224;6.554;2023-09-19T10:28:59;100584.09;;;23.28;100.00
72896;BME280;61036;53.224;6.554;2023-09-19T10:31:28;100594.38;;;22.78;100.00
72896;BME280;61036;53.224;6.554;2023-09-19T10:33:55;100589.00;;;22.98;100.00
72896;BME280;61036;53.224;6.554;2023-09-19T10:36:24;100561.69;;;23.32;100.00
72896;BME280;61036;53.224;6.554;2023-09-19T10:38:53;100572.44;;;23.20;100.00
72896;BME280;61036;53.224;6.554;2023-09-19T10:41:22;100571.22;;;22.66;100.00
72896;BME280;61036;53.224;6.554;2023-09-19T10:43:48;100578.13;;;23.18;100.00
72896;BME280;61036;53.224;6.554;2023-09-19T10:46:14;100558.00;;;22.83;100.00
72896;BME280;61036;53.224;6.554;2023-09-19T10:48:40;100571.28;;;22.73;100.00
72896;BME280;61036;53.224;6.554;2023-09-19T10:51:12;100582.09;;;22.53;100.00
72896;BME280;61036;53.224;6.554;2023-09-19T10:53:56;100581.88;;;22.76;100.00
72896;BME280;61036;53.224;6.554;2023-09-19T10:56:32;100572.47;;;23.33;100.00
72896;BME280;61036;53.224;6.554;2023-09-19T10:59:10;100574.09;;;22.86;100.00
72896;BME280;61036;53.224;6.554;2023-09-19T11:01:48;100568.31;;;23.02;100.00
72896;BME280;61036;53.224;6.554;2023-09-19T11:04:33;100551.44;;;23.19;100.00
72896;BME280;61036;53.224;6.554;2023-09-19T11:07:09;100566.16;;;23.39;100.00
72896;BME280;61036;53.224;6.554;2023-09-19T11:09:55;100551.72;;;23.99;100.00
72896;BME280;61036;53.224;6.554;2023-09-19T11:15:02;100557.28;;;22.96;100.00
72896;BME280;61036;53.224;6.554;2023-09-19T11:17:34;100553.91;;;23.00;100.00
72896;BME280;61036;53.224;6.554;2023-09-19T11:30:32;100528.53;;;21.92;100.00
72896;BME280;61036;53.224;6.554;2023-09-19T11:36:07;100532.63;;;22.81;100.00
72896;BME280;61036;53.224;6.554;2023-09-19T11:43:50;100520.66;;;22.95;100.00
72896;BME280;61036;53.224;6.554;2023-09-19T11:46:17;100509.91;;;23.00;100.00
72896;BME280;61036;53.224;6.554;2023-09-19T11:48:50;100506.69;;;23.45;100.00
72896;BME280;61036;53.224;6.554;2023-09-19T11:51:22;100502.38;;;22.46;100.00
72896;BME280;61036;53.224;6.554;2023-09-19T11:53:50;100495.88;;;22.54;100.00
72896;BME280;61036;53.224;6.554;2023-09-19T11:56:20;100506.16;;;23.15;100.00
72896;BME280;61036;53.224;6.554;2023-09-19T11:58:50;100509.47;;;23.58;100.00
72896;BME280;61036;53.224;6.554;2023-09-19T12:01:32;100508.91;;;23.89;100.00
72896;BME280;61036;53.224;6.554;2023-09-19T12:04:00;100494.84;;;23.51;100.00
72896;BME280;61036;53.224;6.554;2023-09-19T12:06:28;100512.94;;;22.43;100.00
72896;BME280;61036;53.224;6.554;2023-09-19T12:08:55;100506.28;;;22.65;100.00
72896;BME280;61036;53.224;6.554;2023-09-19T12:11:28;100516.50;;;22.15;100.00
72896;BME280;61036;53.224;6.554;2023-09-19T12:13:54;100505.22;;;21.82;100.00
72896;BME280;61036;53.224;6.554;2023-09-19T12:16:24;100491.03;;;21.78;100.00
72896;BME280;61036;53.224;6.554;2023-09-19T12:18:50;100504.22;;;21.89;100.00
72896;BME280;61036;53.224;6.554;2023-09-19T12:21:26;100484.19;;;22.45;100.00
72896;BME280;61036;53.224;6.554;2023-09-19T12:24:06;100485.22;;;21.88;100.00
72896;BME280;61036;53.224;6.554;2023-09-19T12:26:45;100503.28;;;22.25;100.00
72896;BME280;61036;53.224;6.554;2023-09-19T12:31:49;100508.13;;;21.22;100.00
72896;BME280;61036;53.224;6.554;2023-09-19T12:34:20;100497.75;;;21.97;100.00
72896;BME280;61036;53.224;6.554;2023-09-19T12:36:47;100502.31;;;21.68;100.00
72896;BME280;61036;53.224;6.554;2023-09-19T12:39:22;100500.69;;;21.74;100.00
72896;BME280;61036;53.224;6.554;2023-09-19T12:41:50;100489.09;;;21.36;100.00
72896;BME280;61036;53.224;6.554;2023-09-19T12:44:17;100485.34;;;21.22;100.00
72896;BME280;61036;53.224;6.554;2023-09-19T12:46:44;100487.25;;;21.21;100.00
72896;BME280;61036;53.224;6.554;2023-09-19T12:49:17;100476.44;;;22.21;100.00
72896;BME280;61036;53.224;6.554;2023-09-19T12:51:43;100470.34;;;22.32;100.00
72896;BME280;61036;53.224;6.554;2023-09-19T12:54:09;100467.84;;;21.59;100.00
72896;BME280;61036;53.224;6.554;2023-09-19T12:56:39;100465.66;;;22.95;100.00
72896;BME280;61036;53.224;6.554;2023-09-19T12:59:13;100461.97;;;22.75;100.00
72896;BME280;61036;53.224;6.554;2023-09-19T13:01:43;100449.94;;;21.85;100.00
72896;BME280;61036;53.224;6.554;2023-09-19T13:06:49;100451.88;;;21.91;100.00
72896;BME280;61036;53.224;6.554;2023-09-19T13:09:16;100448.34;;;22.60;100.00
72896;BME280;61036;53.224;6.554;2023-09-19T13:11:43;100468.44;;;21.55;100.00
72896;BME280;61036;53.224;6.554;2023-09-19T13:14:15;100461.28;;;22.66;100.00
72896;BME280;61036;53.224;6.554;2023-09-19T13:17:03;100456.59;;;22.60;100.00
72896;BME280;61036;53.224;6.554;2023-09-19T13:19:39;100472.41;;;22.23;100.00
72896;BME280;61036;53.224;6.554;2023-09-19T13:25:12;100474.16;;;22.31;100.00
72896;BME280;61036;53.224;6.554;2023-09-19T13:27:48;100490.22;;;21.63;100.00
72896;BME280;61036;53.224;6.554;2023-09-19T13:30:17;100479.38;;;22.19;100.00
72896;BME280;61036;53.224;6.554;2023-09-19T13:32:43;100479.66;;;21.60;100.00
72896;BME280;61036;53.224;6.554;2023-09-19T13:35:10;100485.50;;;21.35;100.00
72896;BME280;61036;53.224;6.554;2023-09-19T13:37:38;100470.06;;;21.71;100.00
72896;BME280;61036;53.224;6.554;2023-09-19T13:40:08;100472.09;;;21.40;100.00